createdAt,value
2023-07-29T00:00:00.903Z,78
2023-07-29T00:15:00.794Z,78
2023-07-29T00:30:00.740Z,78
2023-07-29T00:45:00.739Z,78
2023-07-29T01:00:00.713Z,78
2023-07-29T01:15:00.737Z,79
2023-07-29T01:30:00.853Z,79
2023-07-29T01:45:00.763Z,79
2023-07-29T02:00:00.729Z,79
2023-07-29T02:15:00.731Z,79
2023-07-29T02:30:01.448Z,80
2023-07-29T02:45:00.821Z,79
2023-07-29T03:00:00.781Z,80
2023-07-29T03:15:00.754Z,80
2023-07-29T03:30:00.750Z,80
2023-07-29T03:45:00.745Z,80
2023-07-29T04:00:00.837Z,80
2023-07-29T04:15:00.778Z,80
2023-07-29T04:30:00.749Z,80
2023-07-29T04:45:00.762Z,81
2023-07-29T05:00:00.726Z,81
2023-07-29T05:15:00.813Z,81
2023-07-29T05:30:00.777Z,81
2023-07-29T05:45:00.745Z,81
2023-07-29T06:00:00.766Z,81
2023-07-29T06:15:00.785Z,81
2023-07-29T06:30:00.841Z,81
2023-07-29T06:45:00.737Z,81
2023-07-29T07:00:00.792Z,82
2023-07-29T07:15:00.727Z,82
2023-07-29T07:30:00.727Z,83
2023-07-29T07:45:00.790Z,82
2023-07-29T08:00:00.788Z,82
2023-07-29T08:15:00.755Z,81
2023-07-29T08:30:00.742Z,80
2023-07-29T08:45:00.766Z,77
2023-07-29T09:00:01.052Z,75
2023-07-29T09:15:00.966Z,70
2023-07-29T09:30:00.764Z,69
2023-07-29T09:45:00.765Z,62
2023-07-29T10:00:00.723Z,62
2023-07-29T10:15:02.476Z,59
2023-07-29T10:30:00.701Z,59
2023-07-29T10:45:00.783Z,60
2023-07-29T11:00:00.797Z,57
2023-07-29T11:15:00.808Z,58
2023-07-29T11:30:00.854Z,53
2023-07-29T11:45:00.808Z,53
2023-07-29T12:00:00.807Z,53
2023-07-29T12:15:00.751Z,54
2023-07-29T12:30:00.802Z,53
2023-07-29T12:45:00.848Z,51
2023-07-29T13:00:00.773Z,51
2023-07-29T13:15:00.753Z,52
2023-07-29T13:30:00.775Z,56
2023-07-29T13:45:00.823Z,55
2023-07-29T14:00:00.863Z,55
2023-07-29T14:15:00.746Z,56
2023-07-29T14:30:00.875Z,57
2023-07-29T14:45:00.759Z,57
2023-07-29T15:00:00.954Z,59
2023-07-29T15:15:00.869Z,60
2023-07-29T15:30:01.206Z,60
2023-07-29T15:45:00.782Z,59
2023-07-29T16:00:00.823Z,58
2023-07-29T16:15:00.742Z,59
2023-07-29T16:30:00.952Z,59
2023-07-29T16:45:00.767Z,60
2023-07-29T17:00:00.764Z,61
2023-07-29T17:15:00.780Z,63
2023-07-29T17:30:00.835Z,63
2023-07-29T17:45:01.015Z,65
2023-07-29T18:00:00.757Z,66
2023-07-29T18:15:00.747Z,67
2023-07-29T18:30:00.836Z,69
2023-07-29T18:45:01.007Z,70
2023-07-29T19:00:00.754Z,71
2023-07-29T19:15:00.796Z,71
2023-07-29T19:30:00.970Z,72
2023-07-29T19:45:02.054Z,73
2023-07-29T20:00:00.761Z,73
2023-07-29T20:15:00.758Z,74
2023-07-29T20:30:03.796Z,78
2023-07-29T20:45:00.736Z,78
2023-07-29T21:15:00.811Z,78
2023-07-29T21:30:00.941Z,79
2023-07-29T21:45:00.774Z,79
2023-07-29T22:00:00.763Z,79
2023-07-29T22:15:00.729Z,79
2023-07-29T22:30:00.811Z,79
2023-07-29T22:45:00.919Z,79
2023-07-29T23:00:00.740Z,80
2023-07-29T23:15:00.749Z,80
2023-07-29T23:30:00.747Z,81
2023-07-29T23:45:00.938Z,80
